KLM994 EFHK-EHAM
Flight info
| Callsign | KLM994 |
|---|---|
| Flight time | 2h 17m |
| Altitude | 36000 |
| Route | NUNTO Y369 REKDO DCT KOSKA DCT KOPIM N872 DEMIR DCT WANZA N872 OGFON DCT KUBAT T200 BLUFA |
| Aircraft | A20N/M-SDE2E3FGHIRWXY/LB1 |
Departure
| Time | 2026-05-07 17:38 |
|---|---|
| Airport | Helsinki Vantaa Airport (EFHK) |
Arrival
| Time | 2026-05-07 19:55 |
|---|---|
| Airport | Amsterdam Airport Schiphol (EHAM) |
| Time | Latitude | Longitude | Altitude | Speed | Heading |
|---|---|---|---|---|---|
| 2026-05-07 17:16 | 60.31505 | 24.95724 | 162 ft | 0 kts | 137° |
| 2026-05-07 17:23 | 60.31506 | 24.95723 | 162 ft | 2 kts | 137° |
| 2026-05-07 17:24 | 60.31517 | 24.95701 | 161 ft | 2 kts | 137° |
| 2026-05-07 17:24 | 60.31529 | 24.95679 | 161 ft | 2 kts | 134° |
| 2026-05-07 17:24 | 60.31539 | 24.95652 | 161 ft | 2 kts | 111° |
| 2026-05-07 17:24 | 60.31546 | 24.95623 | 161 ft | 2 kts | 109° |
| 2026-05-07 17:25 | 60.31548 | 24.95591 | 160 ft | 2 kts | 82° |
| 2026-05-07 17:25 | 60.31546 | 24.95567 | 160 ft | 0 kts | 58° |
| 2026-05-07 17:27 | 60.31547 | 24.95569 | 160 ft | 2 kts | 55° |
| 2026-05-07 17:28 | 60.31587 | 24.95641 | 161 ft | 9 kts | 42° |
| 2026-05-07 17:28 | 60.31639 | 24.95654 | 160 ft | 8 kts | 328° |
| 2026-05-07 17:28 | 60.31676 | 24.95591 | 160 ft | 1 kts | 319° |
| 2026-05-07 17:28 | 60.31682 | 24.95581 | 160 ft | 1 kts | 319° |
| 2026-05-07 17:29 | 60.31683 | 24.95579 | 160 ft | 0 kts | 319° |
| 2026-05-07 17:30 | 60.31702 | 24.95557 | 160 ft | 3 kts | 338° |
| 2026-05-07 17:30 | 60.31724 | 24.95553 | 159 ft | 3 kts | 4° |
| 2026-05-07 17:30 | 60.31764 | 24.95601 | 160 ft | 7 kts | 42° |
| 2026-05-07 17:30 | 60.31796 | 24.95665 | 160 ft | 6 kts | 46° |
| 2026-05-07 17:31 | 60.31834 | 24.95744 | 161 ft | 3 kts | 46° |
| 2026-05-07 17:31 | 60.31844 | 24.95766 | 161 ft | 1 kts | 46° |
| 2026-05-07 17:31 | 60.31873 | 24.95826 | 161 ft | 11 kts | 46° |
| 2026-05-07 17:31 | 60.31920 | 24.95918 | 162 ft | 8 kts | 36° |
| 2026-05-07 17:32 | 60.31950 | 24.95940 | 162 ft | 0 kts | 8° |
| 2026-05-07 17:32 | 60.31976 | 24.95927 | 162 ft | 11 kts | 333° |
| 2026-05-07 17:33 | 60.32039 | 24.95822 | 162 ft | 11 kts | 319° |
| 2026-05-07 17:33 | 60.32095 | 24.95723 | 161 ft | 11 kts | 319° |
| 2026-05-07 17:33 | 60.32149 | 24.95626 | 161 ft | 10 kts | 319° |
| 2026-05-07 17:33 | 60.32196 | 24.95539 | 161 ft | 9 kts | 316° |
| 2026-05-07 17:34 | 60.32242 | 24.95449 | 162 ft | 10 kts | 316° |
| 2026-05-07 17:34 | 60.32294 | 24.95350 | 163 ft | 11 kts | 317° |
| 2026-05-07 17:34 | 60.32352 | 24.95258 | 164 ft | 11 kts | 335° |
| 2026-05-07 17:34 | 60.32422 | 24.95207 | 165 ft | 10 kts | 343° |
| 2026-05-07 17:35 | 60.32502 | 24.95160 | 167 ft | 12 kts | 343° |
| 2026-05-07 17:35 | 60.32576 | 24.95115 | 168 ft | 10 kts | 343° |
| 2026-05-07 17:35 | 60.32651 | 24.95068 | 170 ft | 19 kts | 342° |
| 2026-05-07 17:35 | 60.32810 | 24.94963 | 176 ft | 19 kts | 342° |
| 2026-05-07 17:36 | 60.32913 | 24.94872 | 182 ft | 14 kts | 324° |
| 2026-05-07 17:36 | 60.32970 | 24.94768 | 193 ft | 8 kts | 317° |
| 2026-05-07 17:36 | 60.33038 | 24.94639 | 194 ft | 16 kts | 316° |
| 2026-05-07 17:36 | 60.33077 | 24.94564 | 196 ft | 8 kts | 316° |
| 2026-05-07 17:37 | 60.33106 | 24.94399 | 199 ft | 14 kts | 250° |
| 2026-05-07 17:37 | 60.33051 | 24.94254 | 201 ft | 14 kts | 228° |
| 2026-05-07 17:37 | 60.32973 | 24.94079 | 197 ft | 25 kts | 228° |
| 2026-05-07 17:37 | 60.32658 | 24.93404 | 182 ft | 109 kts | 226° |
| 2026-05-07 17:38 | 60.31947 | 24.91931 | 207 ft | 179 kts | 225° |
| 2026-05-07 17:38 | 60.31055 | 24.89997 | 876 ft | 189 kts | 227° |
| 2026-05-07 17:38 | 60.30266 | 24.87912 | 1795 ft | 187 kts | 242° |
| 2026-05-07 17:38 | 60.29840 | 24.85304 | 2218 ft | 210 kts | 263° |
| 2026-05-07 17:39 | 60.29942 | 24.82213 | 2708 ft | 235 kts | 283° |
| 2026-05-07 17:39 | 60.30275 | 24.78886 | 3482 ft | 248 kts | 272° |
| 2026-05-07 17:39 | 60.29930 | 24.75447 | 4446 ft | 256 kts | 251° |
| 2026-05-07 17:39 | 60.29255 | 24.72079 | 5412 ft | 262 kts | 250° |
| 2026-05-07 17:40 | 60.28555 | 24.68653 | 6397 ft | 266 kts | 250° |
| 2026-05-07 17:40 | 60.27840 | 24.65179 | 7340 ft | 270 kts | 250° |
| 2026-05-07 17:40 | 60.27114 | 24.61666 | 8325 ft | 272 kts | 249° |
| 2026-05-07 17:40 | 60.26383 | 24.58132 | 9345 ft | 274 kts | 249° |
| 2026-05-07 17:41 | 60.25647 | 24.54572 | 10304 ft | 276 kts | 249° |
| 2026-05-07 17:41 | 60.24910 | 24.50990 | 11230 ft | 277 kts | 249° |
| 2026-05-07 17:41 | 60.24130 | 24.47447 | 12175 ft | 280 kts | 245° |
| 2026-05-07 17:41 | 60.23180 | 24.43857 | 12567 ft | 302 kts | 244° |
| 2026-05-07 17:42 | 60.22165 | 24.40058 | 13185 ft | 312 kts | 244° |
| 2026-05-07 17:42 | 60.21125 | 24.36201 | 14019 ft | 315 kts | 244° |
| 2026-05-07 17:42 | 60.20074 | 24.32322 | 14812 ft | 317 kts | 244° |
| 2026-05-07 17:42 | 60.19015 | 24.28421 | 15617 ft | 318 kts | 244° |
| 2026-05-07 17:43 | 60.17956 | 24.24518 | 16424 ft | 319 kts | 244° |
| 2026-05-07 17:43 | 60.16907 | 24.20655 | 17231 ft | 320 kts | 244° |
| 2026-05-07 17:43 | 60.15841 | 24.16726 | 18027 ft | 321 kts | 245° |
| 2026-05-07 17:43 | 60.14769 | 24.12776 | 18742 ft | 323 kts | 245° |
| 2026-05-07 17:44 | 60.13676 | 24.08752 | 19429 ft | 324 kts | 244° |
| 2026-05-07 17:44 | 60.12605 | 24.04832 | 20082 ft | 326 kts | 244° |
| 2026-05-07 17:44 | 60.11510 | 24.00839 | 20744 ft | 328 kts | 244° |
| 2026-05-07 17:44 | 60.10408 | 23.96831 | 21392 ft | 329 kts | 244° |
| 2026-05-07 17:45 | 60.09299 | 23.92794 | 22051 ft | 331 kts | 244° |
| 2026-05-07 17:45 | 60.08185 | 23.88739 | 22712 ft | 332 kts | 244° |
| 2026-05-07 17:45 | 60.07087 | 23.84651 | 23357 ft | 334 kts | 245° |
| 2026-05-07 17:45 | 60.06008 | 23.80519 | 23835 ft | 337 kts | 246° |
| 2026-05-07 17:46 | 60.04920 | 23.76315 | 24273 ft | 341 kts | 246° |
| 2026-05-07 17:46 | 60.03822 | 23.72081 | 24738 ft | 345 kts | 245° |
| 2026-05-07 17:46 | 60.02711 | 23.67810 | 25201 ft | 347 kts | 245° |
| 2026-05-07 17:46 | 60.01587 | 23.63515 | 25679 ft | 350 kts | 245° |
| 2026-05-07 17:47 | 60.00446 | 23.59189 | 26131 ft | 353 kts | 245° |
| 2026-05-07 17:47 | 59.99296 | 23.54847 | 26584 ft | 355 kts | 245° |
| 2026-05-07 17:47 | 59.98134 | 23.50472 | 27029 ft | 358 kts | 245° |
| 2026-05-07 17:47 | 59.96963 | 23.46063 | 27467 ft | 360 kts | 245° |
| 2026-05-07 17:48 | 59.95782 | 23.41627 | 27907 ft | 363 kts | 245° |
| 2026-05-07 17:48 | 59.94594 | 23.37163 | 28335 ft | 366 kts | 245° |
| 2026-05-07 17:48 | 59.93396 | 23.32674 | 28765 ft | 368 kts | 245° |
| 2026-05-07 17:48 | 59.92182 | 23.28141 | 29176 ft | 371 kts | 245° |
| 2026-05-07 17:49 | 59.90963 | 23.23589 | 29588 ft | 374 kts | 244° |
| 2026-05-07 17:49 | 59.89735 | 23.19008 | 29999 ft | 376 kts | 244° |
| 2026-05-07 17:49 | 59.88495 | 23.14402 | 30361 ft | 379 kts | 244° |
| 2026-05-07 17:49 | 59.87241 | 23.09761 | 30608 ft | 382 kts | 244° |
| 2026-05-07 17:50 | 59.85975 | 23.05075 | 30875 ft | 386 kts | 244° |
| 2026-05-07 17:50 | 59.84695 | 23.00346 | 31160 ft | 389 kts | 244° |
| 2026-05-07 17:50 | 59.83403 | 22.95594 | 31441 ft | 392 kts | 244° |
| 2026-05-07 17:50 | 59.82101 | 22.90820 | 31788 ft | 394 kts | 244° |
| 2026-05-07 17:51 | 59.80795 | 22.86034 | 32168 ft | 394 kts | 244° |
| 2026-05-07 17:51 | 59.79485 | 22.81253 | 32555 ft | 394 kts | 244° |
| 2026-05-07 17:51 | 59.78190 | 22.76525 | 32940 ft | 394 kts | 244° |
| 2026-05-07 17:51 | 59.76882 | 22.71748 | 33330 ft | 395 kts | 244° |
| 2026-05-07 17:52 | 59.75568 | 22.66962 | 33706 ft | 395 kts | 244° |
| 2026-05-07 17:52 | 59.74251 | 22.62180 | 34087 ft | 395 kts | 244° |
| 2026-05-07 17:52 | 59.72930 | 22.57397 | 34424 ft | 395 kts | 244° |
| 2026-05-07 17:52 | 59.71609 | 22.52620 | 34738 ft | 396 kts | 244° |
| 2026-05-07 17:53 | 59.70285 | 22.47834 | 35059 ft | 396 kts | 244° |
| 2026-05-07 17:53 | 59.68957 | 22.43052 | 35359 ft | 396 kts | 244° |
| 2026-05-07 17:53 | 59.67625 | 22.38272 | 35662 ft | 397 kts | 243° |
| 2026-05-07 17:53 | 59.66291 | 22.33498 | 35954 ft | 397 kts | 243° |
| 2026-05-07 17:54 | 59.64951 | 22.28709 | 36101 ft | 398 kts | 243° |
| 2026-05-07 17:54 | 59.63620 | 22.23961 | 36132 ft | 393 kts | 243° |
| 2026-05-07 17:54 | 59.60975 | 22.14538 | 36136 ft | 391 kts | 243° |
| 2026-05-07 17:55 | 59.58333 | 22.05162 | 36136 ft | 391 kts | 243° |
| 2026-05-07 17:55 | 59.55678 | 21.95802 | 36138 ft | 391 kts | 243° |
| 2026-05-07 17:56 | 59.53019 | 21.86452 | 36138 ft | 391 kts | 243° |
| 2026-05-07 17:56 | 59.50348 | 21.77112 | 36108 ft | 391 kts | 243° |
| 2026-05-07 17:57 | 59.48125 | 21.69356 | 36117 ft | 392 kts | 243° |
| 2026-05-07 17:57 | 59.44985 | 21.58460 | 36118 ft | 392 kts | 243° |
| 2026-05-07 17:58 | 59.42292 | 21.49146 | 36135 ft | 392 kts | 243° |
| 2026-05-07 17:58 | 59.39612 | 21.39897 | 36141 ft | 392 kts | 243° |
| 2026-05-07 17:59 | 59.36905 | 21.30597 | 36145 ft | 392 kts | 243° |
| 2026-05-07 17:59 | 59.34194 | 21.21316 | 36150 ft | 392 kts | 243° |
| 2026-05-07 18:00 | 59.31474 | 21.12050 | 36114 ft | 392 kts | 242° |
| 2026-05-07 18:00 | 59.28751 | 21.02799 | 36148 ft | 393 kts | 243° |
| 2026-05-07 18:01 | 59.26013 | 20.93554 | 36146 ft | 393 kts | 243° |
| 2026-05-07 18:01 | 59.23266 | 20.84304 | 36146 ft | 394 kts | 243° |
| 2026-05-07 18:02 | 59.19127 | 20.70444 | 36147 ft | 394 kts | 242° |
| 2026-05-07 18:03 | 59.16321 | 20.61258 | 36151 ft | 394 kts | 242° |
| 2026-05-07 18:03 | 59.13454 | 20.52143 | 36153 ft | 395 kts | 241° |
| 2026-05-07 18:04 | 59.10571 | 20.43046 | 36121 ft | 395 kts | 241° |
| 2026-05-07 18:04 | 59.07685 | 20.33953 | 36132 ft | 395 kts | 241° |
| 2026-05-07 18:05 | 59.04802 | 20.24857 | 36140 ft | 395 kts | 241° |
| 2026-05-07 18:05 | 59.01914 | 20.15779 | 36146 ft | 395 kts | 241° |
| 2026-05-07 18:06 | 58.99015 | 20.06709 | 36169 ft | 395 kts | 241° |
| 2026-05-07 18:06 | 58.96110 | 19.97658 | 36167 ft | 395 kts | 241° |
| 2026-05-07 18:07 | 58.93196 | 19.88626 | 36166 ft | 395 kts | 241° |
| 2026-05-07 18:07 | 58.90271 | 19.79610 | 36126 ft | 396 kts | 241° |
| 2026-05-07 18:08 | 58.87337 | 19.70584 | 36131 ft | 397 kts | 241° |
| 2026-05-07 18:08 | 58.84397 | 19.61549 | 36137 ft | 397 kts | 240° |
| 2026-05-07 18:09 | 58.81440 | 19.52531 | 36145 ft | 398 kts | 240° |
| 2026-05-07 18:09 | 58.78501 | 19.43587 | 36151 ft | 398 kts | 240° |
| 2026-05-07 18:10 | 58.75534 | 19.34582 | 36155 ft | 398 kts | 240° |
| 2026-05-07 18:10 | 58.72557 | 19.25604 | 36123 ft | 398 kts | 240° |
| 2026-05-07 18:11 | 58.69570 | 19.16626 | 36139 ft | 399 kts | 240° |
| 2026-05-07 18:11 | 58.66566 | 19.07623 | 36140 ft | 400 kts | 240° |
| 2026-05-07 18:12 | 58.63550 | 18.98627 | 36145 ft | 401 kts | 240° |
| 2026-05-07 18:12 | 58.60528 | 18.89631 | 36153 ft | 401 kts | 240° |
| 2026-05-07 18:13 | 58.57495 | 18.80638 | 36159 ft | 402 kts | 240° |
| 2026-05-07 18:13 | 58.54457 | 18.71652 | 36161 ft | 402 kts | 240° |
| 2026-05-07 18:14 | 58.51407 | 18.62683 | 36129 ft | 402 kts | 240° |
| 2026-05-07 18:14 | 58.48341 | 18.53715 | 36137 ft | 404 kts | 240° |
| 2026-05-07 18:15 | 58.45263 | 18.44734 | 36135 ft | 405 kts | 239° |
| 2026-05-07 18:15 | 58.42174 | 18.35740 | 36142 ft | 405 kts | 239° |
| 2026-05-07 18:16 | 58.39071 | 18.26760 | 36145 ft | 406 kts | 239° |
| 2026-05-07 18:16 | 58.35959 | 18.17795 | 36150 ft | 406 kts | 239° |
| 2026-05-07 18:17 | 58.32840 | 18.08844 | 36154 ft | 406 kts | 239° |
| 2026-05-07 18:17 | 58.30240 | 18.01402 | 36132 ft | 406 kts | 239° |
| 2026-05-07 18:18 | 58.27107 | 17.92459 | 36144 ft | 407 kts | 239° |
| 2026-05-07 18:18 | 58.23968 | 17.83506 | 36152 ft | 407 kts | 239° |
| 2026-05-07 18:19 | 58.20815 | 17.74561 | 36155 ft | 408 kts | 238° |
| 2026-05-07 18:19 | 58.17655 | 17.65642 | 36157 ft | 408 kts | 238° |
| 2026-05-07 18:20 | 58.14485 | 17.56733 | 36161 ft | 408 kts | 238° |
| 2026-05-07 18:20 | 58.11303 | 17.47847 | 36145 ft | 408 kts | 238° |
| 2026-05-07 18:21 | 58.08115 | 17.38955 | 36143 ft | 409 kts | 238° |
| 2026-05-07 18:21 | 58.04921 | 17.30044 | 36145 ft | 410 kts | 238° |
| 2026-05-07 18:22 | 58.01711 | 17.21140 | 36146 ft | 411 kts | 238° |
| 2026-05-07 18:22 | 57.98485 | 17.12249 | 36149 ft | 411 kts | 238° |
| 2026-05-07 18:23 | 57.95247 | 17.03365 | 36155 ft | 411 kts | 238° |
| 2026-05-07 18:23 | 57.92031 | 16.94542 | 36159 ft | 411 kts | 238° |
| 2026-05-07 18:24 | 57.88784 | 16.85682 | 36142 ft | 412 kts | 237° |
| 2026-05-07 18:24 | 57.85524 | 16.76812 | 36143 ft | 413 kts | 237° |
| 2026-05-07 18:25 | 57.82253 | 16.67950 | 36145 ft | 413 kts | 237° |
| 2026-05-07 18:25 | 57.78970 | 16.59092 | 36160 ft | 414 kts | 237° |
| 2026-05-07 18:26 | 57.75678 | 16.50239 | 36160 ft | 414 kts | 237° |
| 2026-05-07 18:26 | 57.72379 | 16.41391 | 36155 ft | 414 kts | 237° |
| 2026-05-07 18:27 | 57.69070 | 16.32547 | 36155 ft | 415 kts | 237° |
| 2026-05-07 18:27 | 57.65748 | 16.23731 | 36157 ft | 415 kts | 237° |
| 2026-05-07 18:28 | 57.62420 | 16.14928 | 36159 ft | 415 kts | 237° |
| 2026-05-07 18:28 | 57.59095 | 16.06124 | 36154 ft | 415 kts | 237° |
| 2026-05-07 18:29 | 57.55755 | 15.97352 | 36156 ft | 415 kts | 237° |
| 2026-05-07 18:29 | 57.52429 | 15.88652 | 36156 ft | 415 kts | 237° |
| 2026-05-07 18:30 | 57.49080 | 15.79910 | 36157 ft | 415 kts | 237° |
| 2026-05-07 18:30 | 57.45730 | 15.71168 | 36136 ft | 416 kts | 236° |
| 2026-05-07 18:31 | 57.42358 | 15.62417 | 36137 ft | 417 kts | 236° |
| 2026-05-07 18:31 | 57.38968 | 15.53673 | 36132 ft | 417 kts | 236° |
| 2026-05-07 18:32 | 57.35575 | 15.44935 | 36128 ft | 418 kts | 236° |
| 2026-05-07 18:32 | 57.32172 | 15.36205 | 36131 ft | 418 kts | 236° |
| 2026-05-07 18:33 | 57.28767 | 15.27487 | 36133 ft | 418 kts | 236° |
| 2026-05-07 18:33 | 57.25346 | 15.18787 | 36120 ft | 419 kts | 236° |
| 2026-05-07 18:34 | 57.21916 | 15.10091 | 36109 ft | 419 kts | 235° |
| 2026-05-07 18:34 | 57.18472 | 15.01400 | 36113 ft | 420 kts | 235° |
| 2026-05-07 18:35 | 57.15022 | 14.92717 | 36122 ft | 420 kts | 235° |
| 2026-05-07 18:35 | 57.11589 | 14.84095 | 36120 ft | 420 kts | 235° |
| 2026-05-07 18:36 | 57.08124 | 14.75424 | 36111 ft | 421 kts | 235° |
| 2026-05-07 18:36 | 57.04647 | 14.66765 | 36104 ft | 421 kts | 235° |
| 2026-05-07 18:37 | 57.01164 | 14.58107 | 36105 ft | 422 kts | 235° |
| 2026-05-07 18:37 | 56.97671 | 14.49456 | 36107 ft | 422 kts | 234° |
| 2026-05-07 18:38 | 56.94162 | 14.40826 | 36109 ft | 422 kts | 234° |
| 2026-05-07 18:38 | 56.90651 | 14.32204 | 36112 ft | 423 kts | 234° |
| 2026-05-07 18:39 | 56.87158 | 14.23641 | 36113 ft | 423 kts | 234° |
| 2026-05-07 18:39 | 56.83635 | 14.15043 | 36118 ft | 423 kts | 234° |
| 2026-05-07 18:40 | 56.80100 | 14.06448 | 36117 ft | 423 kts | 234° |
| 2026-05-07 18:40 | 56.76548 | 13.97857 | 36118 ft | 424 kts | 234° |
| 2026-05-07 18:41 | 56.72995 | 13.89287 | 36122 ft | 424 kts | 234° |
| 2026-05-07 18:41 | 56.69431 | 13.80725 | 36129 ft | 424 kts | 234° |
| 2026-05-07 18:42 | 56.65861 | 13.72172 | 36133 ft | 424 kts | 234° |
| 2026-05-07 18:42 | 56.62290 | 13.63637 | 36132 ft | 425 kts | 234° |
| 2026-05-07 18:43 | 56.58701 | 13.55109 | 36137 ft | 425 kts | 233° |
| 2026-05-07 18:43 | 56.55103 | 13.46587 | 36134 ft | 426 kts | 233° |
| 2026-05-07 18:44 | 56.51504 | 13.38070 | 36146 ft | 426 kts | 233° |
| 2026-05-07 18:44 | 56.47895 | 13.29560 | 36152 ft | 426 kts | 233° |
| 2026-05-07 18:45 | 56.44273 | 13.21081 | 36152 ft | 426 kts | 233° |
| 2026-05-07 18:45 | 56.40645 | 13.12621 | 36149 ft | 426 kts | 233° |
| 2026-05-07 18:46 | 56.37012 | 13.04162 | 36134 ft | 427 kts | 233° |
| 2026-05-07 18:46 | 56.33374 | 12.95705 | 36134 ft | 427 kts | 233° |
| 2026-05-07 18:47 | 56.29727 | 12.87257 | 36129 ft | 427 kts | 233° |
| 2026-05-07 18:47 | 56.26062 | 12.78838 | 36139 ft | 427 kts | 233° |
| 2026-05-07 18:48 | 56.22420 | 12.70478 | 36155 ft | 427 kts | 233° |
| 2026-05-07 18:48 | 56.18754 | 12.62070 | 36154 ft | 428 kts | 232° |
| 2026-05-07 18:49 | 56.15073 | 12.53664 | 36151 ft | 428 kts | 232° |
| 2026-05-07 18:49 | 56.11352 | 12.45319 | 36148 ft | 429 kts | 231° |
| 2026-05-07 18:50 | 56.07511 | 12.37140 | 36149 ft | 429 kts | 230° |
| 2026-05-07 18:50 | 56.03643 | 12.29005 | 36155 ft | 429 kts | 230° |
| 2026-05-07 18:51 | 55.99789 | 12.20845 | 36151 ft | 429 kts | 231° |
| 2026-05-07 18:51 | 55.95941 | 12.12674 | 36139 ft | 430 kts | 230° |
| 2026-05-07 18:52 | 55.92082 | 12.04518 | 36143 ft | 431 kts | 230° |
| 2026-05-07 18:52 | 55.88213 | 11.96362 | 36141 ft | 431 kts | 230° |
| 2026-05-07 18:53 | 55.84326 | 11.88224 | 36148 ft | 431 kts | 230° |
| 2026-05-07 18:53 | 55.80445 | 11.80090 | 36161 ft | 431 kts | 230° |
| 2026-05-07 18:54 | 55.76561 | 11.71970 | 36163 ft | 431 kts | 230° |
| 2026-05-07 18:54 | 55.72667 | 11.63887 | 36148 ft | 431 kts | 230° |
| 2026-05-07 18:55 | 55.68763 | 11.55810 | 36146 ft | 432 kts | 230° |
| 2026-05-07 18:55 | 55.64855 | 11.47734 | 36148 ft | 432 kts | 230° |
| 2026-05-07 18:56 | 55.60928 | 11.39680 | 36145 ft | 432 kts | 230° |
| 2026-05-07 18:56 | 55.57032 | 11.31670 | 36151 ft | 432 kts | 230° |
| 2026-05-07 18:57 | 55.53103 | 11.23627 | 36148 ft | 432 kts | 229° |
| 2026-05-07 18:57 | 55.49169 | 11.15602 | 36153 ft | 432 kts | 229° |
| 2026-05-07 18:58 | 55.45222 | 11.07595 | 36163 ft | 432 kts | 229° |
| 2026-05-07 18:58 | 55.41273 | 10.99613 | 36162 ft | 432 kts | 229° |
| 2026-05-07 18:59 | 55.37318 | 10.91652 | 36156 ft | 432 kts | 229° |
| 2026-05-07 18:59 | 55.33361 | 10.83707 | 36160 ft | 432 kts | 229° |
| 2026-05-07 19:00 | 55.29395 | 10.75769 | 36161 ft | 432 kts | 229° |
| 2026-05-07 19:00 | 55.25418 | 10.67847 | 36148 ft | 432 kts | 229° |
| 2026-05-07 19:01 | 55.21447 | 10.59937 | 36157 ft | 433 kts | 229° |
| 2026-05-07 19:01 | 55.17465 | 10.52041 | 36154 ft | 433 kts | 229° |
| 2026-05-07 19:02 | 55.13473 | 10.44160 | 36151 ft | 433 kts | 229° |
| 2026-05-07 19:02 | 55.09476 | 10.36286 | 36153 ft | 433 kts | 229° |
| 2026-05-07 19:03 | 55.05504 | 10.28483 | 36160 ft | 433 kts | 228° |
| 2026-05-07 19:03 | 55.01490 | 10.20643 | 36158 ft | 433 kts | 228° |
| 2026-05-07 19:04 | 54.97472 | 10.12802 | 36160 ft | 434 kts | 228° |
| 2026-05-07 19:04 | 54.93453 | 10.04985 | 36158 ft | 434 kts | 228° |
| 2026-05-07 19:05 | 54.89429 | 9.97163 | 36161 ft | 434 kts | 229° |
| 2026-05-07 19:05 | 54.85497 | 9.89221 | 36161 ft | 434 kts | 230° |
| 2026-05-07 19:06 | 54.81839 | 9.80904 | 36141 ft | 434 kts | 235° |
| 2026-05-07 19:06 | 54.77210 | 9.69499 | 36139 ft | 435 kts | 234° |
| 2026-05-07 19:07 | 54.73692 | 9.60981 | 36135 ft | 435 kts | 234° |
| 2026-05-07 19:07 | 54.70163 | 9.52474 | 36138 ft | 435 kts | 234° |
| 2026-05-07 19:08 | 54.66643 | 9.43969 | 36137 ft | 435 kts | 234° |
| 2026-05-07 19:08 | 54.63121 | 9.35471 | 36139 ft | 435 kts | 234° |
| 2026-05-07 19:09 | 54.59583 | 9.26993 | 36129 ft | 436 kts | 234° |
| 2026-05-07 19:09 | 54.56039 | 9.18517 | 36127 ft | 436 kts | 234° |
| 2026-05-07 19:10 | 54.52485 | 9.10050 | 36127 ft | 436 kts | 233° |
| 2026-05-07 19:10 | 54.48929 | 9.01606 | 36129 ft | 436 kts | 233° |
| 2026-05-07 19:11 | 54.45370 | 8.93177 | 36128 ft | 436 kts | 233° |
| 2026-05-07 19:11 | 54.41801 | 8.84762 | 36133 ft | 436 kts | 233° |
| 2026-05-07 19:12 | 54.38227 | 8.76371 | 36134 ft | 435 kts | 233° |
| 2026-05-07 19:12 | 54.34647 | 8.67991 | 36132 ft | 435 kts | 233° |
| 2026-05-07 19:13 | 54.31069 | 8.59621 | 36132 ft | 435 kts | 233° |
| 2026-05-07 19:13 | 54.27484 | 8.51266 | 36134 ft | 435 kts | 232° |
| 2026-05-07 19:14 | 54.23884 | 8.42933 | 36134 ft | 435 kts | 232° |
| 2026-05-07 19:14 | 54.19780 | 8.35385 | 36135 ft | 434 kts | 222° |
| 2026-05-07 19:15 | 54.15399 | 8.28300 | 36134 ft | 434 kts | 222° |
| 2026-05-07 19:15 | 54.11012 | 8.21222 | 36126 ft | 434 kts | 222° |
| 2026-05-07 19:16 | 54.06630 | 8.14158 | 36122 ft | 434 kts | 222° |
| 2026-05-07 19:16 | 54.02252 | 8.07101 | 36126 ft | 434 kts | 222° |
| 2026-05-07 19:17 | 53.97869 | 8.00051 | 36129 ft | 434 kts | 222° |
| 2026-05-07 19:17 | 53.93489 | 7.93037 | 36143 ft | 432 kts | 222° |
| 2026-05-07 19:18 | 53.89112 | 7.86066 | 36140 ft | 431 kts | 222° |
| 2026-05-07 19:18 | 53.84748 | 7.79132 | 36139 ft | 430 kts | 222° |
| 2026-05-07 19:19 | 53.80386 | 7.72215 | 36131 ft | 430 kts | 222° |
| 2026-05-07 19:19 | 53.76023 | 7.65308 | 36120 ft | 429 kts | 222° |
| 2026-05-07 19:20 | 53.71659 | 7.58439 | 36128 ft | 428 kts | 222° |
| 2026-05-07 19:20 | 53.67310 | 7.51612 | 36138 ft | 426 kts | 222° |
| 2026-05-07 19:21 | 53.62977 | 7.44826 | 36141 ft | 425 kts | 222° |
| 2026-05-07 19:21 | 53.58650 | 7.38060 | 36135 ft | 424 kts | 222° |
| 2026-05-07 19:22 | 53.54356 | 7.31362 | 36138 ft | 424 kts | 222° |
| 2026-05-07 19:22 | 53.52193 | 7.28001 | 35983 ft | 424 kts | 222° |
| 2026-05-07 19:22 | 53.50034 | 7.24651 | 35499 ft | 421 kts | 222° |
| 2026-05-07 19:23 | 53.47894 | 7.21334 | 35039 ft | 417 kts | 222° |
| 2026-05-07 19:23 | 53.45744 | 7.18007 | 34572 ft | 413 kts | 222° |
| 2026-05-07 19:23 | 53.43669 | 7.14798 | 34119 ft | 409 kts | 221° |
| 2026-05-07 19:23 | 53.41557 | 7.11533 | 33569 ft | 407 kts | 221° |
| 2026-05-07 19:24 | 53.39510 | 7.08377 | 33048 ft | 403 kts | 221° |
| 2026-05-07 19:24 | 53.37451 | 7.05214 | 32566 ft | 399 kts | 221° |
| 2026-05-07 19:24 | 53.35408 | 7.02083 | 32082 ft | 396 kts | 221° |
| 2026-05-07 19:24 | 53.33384 | 6.98993 | 31590 ft | 393 kts | 221° |
| 2026-05-07 19:25 | 53.31320 | 6.96028 | 31121 ft | 389 kts | 219° |
| 2026-05-07 19:25 | 53.29227 | 6.93195 | 30673 ft | 385 kts | 218° |
| 2026-05-07 19:25 | 53.27096 | 6.90407 | 30196 ft | 382 kts | 217° |
| 2026-05-07 19:25 | 53.24998 | 6.87696 | 29632 ft | 380 kts | 217° |
| 2026-05-07 19:26 | 53.22926 | 6.85005 | 29133 ft | 376 kts | 217° |
| 2026-05-07 19:26 | 53.20877 | 6.82321 | 28619 ft | 373 kts | 218° |
| 2026-05-07 19:26 | 53.18877 | 6.79680 | 28106 ft | 370 kts | 218° |
| 2026-05-07 19:26 | 53.16868 | 6.77011 | 27594 ft | 368 kts | 218° |
| 2026-05-07 19:27 | 53.14850 | 6.74329 | 27121 ft | 364 kts | 218° |
| 2026-05-07 19:27 | 53.12878 | 6.71710 | 26634 ft | 362 kts | 218° |
| 2026-05-07 19:27 | 53.10940 | 6.69141 | 26160 ft | 360 kts | 218° |
| 2026-05-07 19:27 | 53.08986 | 6.66559 | 25701 ft | 357 kts | 218° |
| 2026-05-07 19:28 | 53.07042 | 6.64000 | 25330 ft | 354 kts | 218° |
| 2026-05-07 19:28 | 53.05109 | 6.61462 | 25086 ft | 354 kts | 218° |
| 2026-05-07 19:28 | 53.03181 | 6.58930 | 24839 ft | 351 kts | 218° |
| 2026-05-07 19:28 | 53.01279 | 6.56427 | 24436 ft | 348 kts | 218° |
| 2026-05-07 19:29 | 52.99390 | 6.53940 | 23984 ft | 346 kts | 218° |
| 2026-05-07 19:29 | 52.97509 | 6.51463 | 23499 ft | 344 kts | 218° |
| 2026-05-07 19:29 | 52.95634 | 6.49001 | 23021 ft | 342 kts | 218° |
| 2026-05-07 19:29 | 52.93777 | 6.46568 | 22586 ft | 339 kts | 218° |
| 2026-05-07 19:30 | 52.91937 | 6.44160 | 22155 ft | 336 kts | 218° |
| 2026-05-07 19:30 | 52.90110 | 6.41776 | 21728 ft | 333 kts | 218° |
| 2026-05-07 19:30 | 52.88296 | 6.39413 | 21306 ft | 331 kts | 218° |
| 2026-05-07 19:30 | 52.86492 | 6.37066 | 20886 ft | 329 kts | 218° |
| 2026-05-07 19:31 | 52.84703 | 6.34731 | 20467 ft | 327 kts | 220° |
| 2026-05-07 19:31 | 52.83114 | 6.32068 | 20050 ft | 325 kts | 232° |
| 2026-05-07 19:31 | 52.81811 | 6.29020 | 19656 ft | 323 kts | 235° |
| 2026-05-07 19:31 | 52.80538 | 6.25960 | 19250 ft | 323 kts | 235° |
| 2026-05-07 19:32 | 52.79262 | 6.22915 | 18838 ft | 322 kts | 235° |
| 2026-05-07 19:32 | 52.77983 | 6.19879 | 18438 ft | 321 kts | 235° |
| 2026-05-07 19:32 | 52.76704 | 6.16856 | 17997 ft | 321 kts | 235° |
| 2026-05-07 19:32 | 52.75431 | 6.13847 | 17601 ft | 319 kts | 235° |
| 2026-05-07 19:33 | 52.74167 | 6.10857 | 17217 ft | 317 kts | 235° |
| 2026-05-07 19:33 | 52.72910 | 6.07882 | 16828 ft | 315 kts | 235° |
| 2026-05-07 19:33 | 52.71658 | 6.04923 | 16451 ft | 314 kts | 235° |
| 2026-05-07 19:33 | 52.70410 | 6.01982 | 16072 ft | 313 kts | 235° |
| 2026-05-07 19:34 | 52.69165 | 5.99050 | 15700 ft | 312 kts | 235° |
| 2026-05-07 19:34 | 52.67925 | 5.96134 | 15329 ft | 311 kts | 235° |
| 2026-05-07 19:34 | 52.66683 | 5.93217 | 14959 ft | 310 kts | 235° |
| 2026-05-07 19:34 | 52.65448 | 5.90319 | 14592 ft | 309 kts | 235° |
| 2026-05-07 19:35 | 52.64214 | 5.87429 | 14223 ft | 308 kts | 235° |
| 2026-05-07 19:35 | 52.62981 | 5.84540 | 13845 ft | 308 kts | 235° |
| 2026-05-07 19:35 | 52.61752 | 5.81661 | 13438 ft | 307 kts | 235° |
| 2026-05-07 19:35 | 52.60528 | 5.78798 | 13070 ft | 304 kts | 235° |
| 2026-05-07 19:36 | 52.59315 | 5.75964 | 12698 ft | 302 kts | 235° |
| 2026-05-07 19:36 | 52.58106 | 5.73144 | 12323 ft | 300 kts | 235° |
| 2026-05-07 19:36 | 52.56905 | 5.70349 | 11952 ft | 298 kts | 235° |
| 2026-05-07 19:36 | 52.55710 | 5.67574 | 11575 ft | 297 kts | 235° |
| 2026-05-07 19:37 | 52.54522 | 5.64815 | 11196 ft | 295 kts | 235° |
| 2026-05-07 19:37 | 52.53341 | 5.62071 | 10811 ft | 293 kts | 235° |
| 2026-05-07 19:37 | 52.52168 | 5.59346 | 10418 ft | 292 kts | 235° |
| 2026-05-07 19:37 | 52.51098 | 5.56544 | 10118 ft | 287 kts | 245° |
| 2026-05-07 19:38 | 52.50406 | 5.53516 | 10085 ft | 283 kts | 251° |
| 2026-05-07 19:38 | 52.49760 | 5.50460 | 9839 ft | 284 kts | 251° |
| 2026-05-07 19:38 | 52.49105 | 5.47422 | 9509 ft | 280 kts | 250° |
| 2026-05-07 19:38 | 52.48460 | 5.44450 | 9323 ft | 280 kts | 250° |
| 2026-05-07 19:39 | 52.47798 | 5.41404 | 9139 ft | 280 kts | 250° |
| 2026-05-07 19:39 | 52.47144 | 5.38396 | 8966 ft | 280 kts | 250° |
| 2026-05-07 19:39 | 52.46494 | 5.35402 | 8779 ft | 278 kts | 250° |
| 2026-05-07 19:39 | 52.46065 | 5.33424 | 8664 ft | 278 kts | 249° |
| 2026-05-07 19:40 | 52.45200 | 5.29450 | 8425 ft | 276 kts | 249° |
| 2026-05-07 19:40 | 52.44557 | 5.26489 | 8252 ft | 276 kts | 249° |
| 2026-05-07 19:40 | 52.43924 | 5.23574 | 8073 ft | 274 kts | 249° |
| 2026-05-07 19:40 | 52.43276 | 5.20590 | 7897 ft | 274 kts | 250° |
| 2026-05-07 19:41 | 52.42643 | 5.17690 | 7721 ft | 273 kts | 249° |
| 2026-05-07 19:41 | 52.42003 | 5.14764 | 7548 ft | 272 kts | 249° |
| 2026-05-07 19:41 | 52.41366 | 5.11849 | 7369 ft | 271 kts | 249° |
| 2026-05-07 19:41 | 52.40731 | 5.08951 | 7199 ft | 271 kts | 249° |
| 2026-05-07 19:42 | 52.40092 | 5.06047 | 7029 ft | 270 kts | 249° |
| 2026-05-07 19:42 | 52.39456 | 5.03155 | 6850 ft | 270 kts | 249° |
| 2026-05-07 19:42 | 52.38819 | 5.00264 | 6673 ft | 269 kts | 249° |
| 2026-05-07 19:42 | 52.38183 | 4.97387 | 6501 ft | 269 kts | 249° |
| 2026-05-07 19:43 | 52.37549 | 4.94522 | 6329 ft | 267 kts | 249° |
| 2026-05-07 19:43 | 52.36920 | 4.91677 | 6145 ft | 265 kts | 249° |
| 2026-05-07 19:43 | 52.36294 | 4.88844 | 5977 ft | 265 kts | 249° |
| 2026-05-07 19:43 | 52.35667 | 4.86021 | 5804 ft | 264 kts | 249° |
| 2026-05-07 19:44 | 52.35036 | 4.83189 | 5634 ft | 265 kts | 249° |
| 2026-05-07 19:44 | 52.34407 | 4.80368 | 5469 ft | 264 kts | 248° |
| 2026-05-07 19:44 | 52.33788 | 4.77548 | 5293 ft | 264 kts | 251° |
| 2026-05-07 19:44 | 52.33491 | 4.74593 | 5148 ft | 265 kts | 267° |
| 2026-05-07 19:45 | 52.33687 | 4.71591 | 5018 ft | 267 kts | 281° |
| 2026-05-07 19:45 | 52.34116 | 4.68637 | 4786 ft | 267 kts | 282° |
| 2026-05-07 19:45 | 52.34374 | 4.65652 | 4598 ft | 265 kts | 268° |
| 2026-05-07 19:45 | 52.34109 | 4.62695 | 4412 ft | 263 kts | 252° |
| 2026-05-07 19:46 | 52.33348 | 4.59997 | 4178 ft | 261 kts | 236° |
| 2026-05-07 19:46 | 52.32367 | 4.57505 | 3984 ft | 258 kts | 236° |
| 2026-05-07 19:46 | 52.31428 | 4.55094 | 3814 ft | 245 kts | 236° |
| 2026-05-07 19:46 | 52.30556 | 4.52841 | 3646 ft | 223 kts | 236° |
| 2026-05-07 19:47 | 52.29752 | 4.50756 | 3513 ft | 215 kts | 236° |
| 2026-05-07 19:47 | 52.28982 | 4.48752 | 3364 ft | 201 kts | 236° |
| 2026-05-07 19:47 | 52.28251 | 4.46857 | 3230 ft | 196 kts | 236° |
| 2026-05-07 19:47 | 52.27410 | 4.45148 | 3099 ft | 192 kts | 217° |
| 2026-05-07 19:48 | 52.26683 | 4.44388 | 3033 ft | 180 kts | 201° |
| 2026-05-07 19:48 | 52.25554 | 4.43884 | 2944 ft | 159 kts | 182° |
| 2026-05-07 19:48 | 52.24501 | 4.43996 | 2861 ft | 147 kts | 165° |
| 2026-05-07 19:48 | 52.23566 | 4.44588 | 2798 ft | 142 kts | 147° |
| 2026-05-07 19:49 | 52.22755 | 4.45463 | 2728 ft | 139 kts | 139° |
| 2026-05-07 19:49 | 52.22063 | 4.46553 | 2643 ft | 139 kts | 127° |
| 2026-05-07 19:49 | 52.21534 | 4.47857 | 2586 ft | 137 kts | 115° |
| 2026-05-07 19:49 | 52.21190 | 4.49301 | 2528 ft | 137 kts | 107° |
| 2026-05-07 19:50 | 52.20952 | 4.50792 | 2460 ft | 135 kts | 96° |
| 2026-05-07 19:50 | 52.20964 | 4.52315 | 2396 ft | 136 kts | 81° |
| 2026-05-07 19:50 | 52.21310 | 4.53731 | 2361 ft | 136 kts | 62° |
| 2026-05-07 19:50 | 52.21775 | 4.55083 | 2280 ft | 137 kts | 61° |
| 2026-05-07 19:51 | 52.22259 | 4.56415 | 2205 ft | 136 kts | 60° |
| 2026-05-07 19:51 | 52.22751 | 4.57726 | 2182 ft | 133 kts | 60° |
| 2026-05-07 19:51 | 52.23235 | 4.58995 | 2076 ft | 131 kts | 60° |
| 2026-05-07 19:51 | 52.23714 | 4.60243 | 1916 ft | 129 kts | 60° |
| 2026-05-07 19:52 | 52.24190 | 4.61479 | 1751 ft | 129 kts | 60° |
| 2026-05-07 19:52 | 52.24663 | 4.62706 | 1586 ft | 127 kts | 59° |
| 2026-05-07 19:52 | 52.25131 | 4.63918 | 1417 ft | 126 kts | 60° |
| 2026-05-07 19:52 | 52.25596 | 4.65123 | 1244 ft | 126 kts | 59° |
| 2026-05-07 19:53 | 52.26060 | 4.66325 | 1076 ft | 125 kts | 59° |
| 2026-05-07 19:53 | 52.26521 | 4.67520 | 901 ft | 125 kts | 58° |
| 2026-05-07 19:53 | 52.26982 | 4.68716 | 733 ft | 124 kts | 58° |
| 2026-05-07 19:53 | 52.27441 | 4.69906 | 576 ft | 124 kts | 58° |
| 2026-05-07 19:54 | 52.27901 | 4.71103 | 401 ft | 125 kts | 58° |
| 2026-05-07 19:54 | 52.28359 | 4.72293 | 248 ft | 124 kts | 58° |
| 2026-05-07 19:54 | 52.28823 | 4.73491 | 57 ft | 124 kts | 58° |
| 2026-05-07 19:54 | 52.29259 | 4.74626 | 2 ft | 101 kts | 58° |
| 2026-05-07 19:55 | 52.29549 | 4.75384 | -4 ft | 64 kts | 58° |
| 2026-05-07 19:55 | 52.29758 | 4.75932 | -4 ft | 50 kts | 58° |
| 2026-05-07 19:55 | 52.29915 | 4.76337 | -7 ft | 34 kts | 57° |
| 2026-05-07 19:55 | 52.30070 | 4.76568 | -3 ft | 28 kts | 32° |
| 2026-05-07 19:56 | 52.30183 | 4.76672 | -2 ft | 16 kts | 29° |
| 2026-05-07 19:56 | 52.30291 | 4.76741 | -2 ft | 18 kts | 356° |
| 2026-05-07 19:56 | 52.30363 | 4.76594 | -2 ft | 17 kts | 307° |
| 2026-05-07 19:56 | 52.30456 | 4.76482 | -2 ft | 11 kts | 325° |
| 2026-05-07 19:57 | 52.30494 | 4.76440 | -2 ft | 2 kts | 326° |